createdAt,value
2024-05-09T00:03:34.791Z,78.30
2024-05-09T00:07:17.286Z,78.70
2024-05-09T00:10:59.338Z,78.90
2024-05-09T00:14:41.370Z,79.10
2024-05-09T00:18:23.600Z,79.30
2024-05-09T00:22:05.680Z,79.20
2024-05-09T00:25:47.687Z,79.40
2024-05-09T00:29:29.742Z,79.50
2024-05-09T00:33:12.064Z,79.60
2024-05-09T00:36:54.158Z,79.70
2024-05-09T00:40:40.473Z,79.80
2024-05-09T00:44:24.608Z,80.10
2024-05-09T00:48:09.487Z,80.30
2024-05-09T00:51:54.378Z,80.40
2024-05-09T00:55:37.601Z,80.50
2024-05-09T00:59:20.000Z,80.70
2024-05-09T01:03:02.219Z,81.00
2024-05-09T01:06:44.335Z,81.10
2024-05-09T01:10:33.577Z,81.20
2024-05-09T01:14:17.251Z,81.40
2024-05-09T01:18:03.071Z,81.60
2024-05-09T01:21:45.070Z,82.10
2024-05-09T01:25:27.019Z,82.20
2024-05-09T01:29:09.066Z,82.50
2024-05-09T01:32:51.364Z,82.60
2024-05-09T01:36:33.470Z,83.00
2024-05-09T01:40:18.745Z,83.10
2024-05-09T01:44:06.824Z,83.00
2024-05-09T01:47:48.919Z,83.00
2024-05-09T01:51:30.896Z,83.00
2024-05-09T01:55:12.877Z,83.20
2024-05-09T01:58:54.979Z,83.40
2024-05-09T02:02:36.997Z,83.30
2024-05-09T02:06:19.048Z,83.40
2024-05-09T02:10:00.992Z,83.30
2024-05-09T02:13:42.940Z,83.40
2024-05-09T02:17:25.100Z,83.50
2024-05-09T02:21:09.189Z,83.70
2024-05-09T02:24:51.258Z,83.80
2024-05-09T02:28:33.159Z,84.10
2024-05-09T02:32:15.251Z,84.50
2024-05-09T02:35:57.308Z,84.70
2024-05-09T02:39:39.320Z,84.70
2024-05-09T02:43:21.254Z,84.80
2024-05-09T02:47:03.227Z,84.80
2024-05-09T02:50:45.324Z,84.80
2024-05-09T02:54:27.357Z,84.60
2024-05-09T02:58:10.085Z,84.90
2024-05-09T03:01:52.404Z,84.70
2024-05-09T03:05:34.621Z,84.90
2024-05-09T03:09:17.059Z,84.90
2024-05-09T03:12:59.058Z,85.00
2024-05-09T03:16:41.038Z,85.50
2024-05-09T03:20:27.605Z,85.60
2024-05-09T03:24:14.756Z,85.50
2024-05-09T03:27:56.808Z,85.20
2024-05-09T03:31:39.388Z,85.00
2024-05-09T03:35:21.488Z,85.00
2024-05-09T03:39:03.475Z,84.90
2024-05-09T03:42:45.448Z,85.00
2024-05-09T03:46:27.358Z,85.10
2024-05-09T03:50:15.204Z,85.20
2024-05-09T03:54:00.989Z,84.90
2024-05-09T03:57:42.897Z,84.80
2024-05-09T04:01:25.661Z,85.00
2024-05-09T04:05:07.678Z,84.90
2024-05-09T04:08:49.705Z,85.00
2024-05-09T04:12:31.632Z,85.00
2024-05-09T04:16:13.595Z,84.90
2024-05-09T04:19:56.051Z,85.00
2024-05-09T04:23:38.795Z,85.10
2024-05-09T04:27:20.708Z,85.20
2024-05-09T04:31:02.665Z,85.30
2024-05-09T04:34:44.604Z,85.60
2024-05-09T04:38:26.636Z,85.80
2024-05-09T04:42:08.601Z,86.30
2024-05-09T04:45:50.906Z,86.40
2024-05-09T04:49:32.903Z,86.50
2024-05-09T04:53:18.282Z,86.50
2024-05-09T04:57:00.300Z,86.40
2024-05-09T05:00:42.385Z,86.80
2024-05-09T05:04:25.074Z,86.70
2024-05-09T05:08:15.299Z,86.90
2024-05-09T05:11:59.609Z,87.00
2024-05-09T05:15:41.617Z,87.30
2024-05-09T05:19:23.675Z,87.50
2024-05-09T05:23:08.639Z,87.70
2024-05-09T05:26:50.555Z,87.90
2024-05-09T05:30:34.780Z,88.00
2024-05-09T05:34:17.157Z,88.00
2024-05-09T05:37:59.101Z,88.20
2024-05-09T05:41:41.147Z,88.50
2024-05-09T05:45:23.274Z,88.70
2024-05-09T05:49:05.399Z,88.80
2024-05-09T05:52:47.500Z,88.80
2024-05-09T05:56:29.400Z,89.00
2024-05-09T06:00:18.082Z,89.00
2024-05-09T06:04:07.353Z,89.10
2024-05-09T06:07:49.325Z,89.30
2024-05-09T06:11:31.433Z,89.40
2024-05-09T06:15:13.812Z,89.40
2024-05-09T06:18:55.806Z,89.50
2024-05-09T06:22:37.905Z,89.40
2024-05-09T06:26:20.079Z,89.30
2024-05-09T06:30:02.067Z,89.20
2024-05-09T06:33:44.148Z,89.20
2024-05-09T06:37:26.195Z,89.40
2024-05-09T06:41:08.156Z,89.50
2024-05-09T06:44:50.192Z,89.80
2024-05-09T06:48:32.291Z,89.40
2024-05-09T06:52:14.381Z,89.00
2024-05-09T06:55:56.284Z,88.00
2024-05-09T06:59:38.311Z,87.20
2024-05-09T07:03:20.438Z,86.70
2024-05-09T07:07:04.423Z,86.30
2024-05-09T07:10:46.763Z,86.20
2024-05-09T07:14:29.248Z,86.10
2024-05-09T07:18:17.571Z,86.20
2024-05-09T07:22:00.623Z,86.00
2024-05-09T07:25:42.684Z,85.90
2024-05-09T07:29:24.736Z,86.10
2024-05-09T07:33:06.757Z,86.00
2024-05-09T07:36:48.842Z,86.40
2024-05-09T07:40:35.926Z,86.40
2024-05-09T07:44:19.058Z,86.20
2024-05-09T07:53:17.458Z,86.80
2024-05-09T07:55:47.965Z,85.70
2024-05-09T07:59:30.854Z,85.50
2024-05-09T08:03:13.951Z,86.00
2024-05-09T08:06:55.955Z,85.00
2024-05-09T08:10:37.959Z,84.70
2024-05-09T08:14:19.924Z,83.60
2024-05-09T08:18:02.031Z,84.10
2024-05-09T08:21:44.208Z,82.70
2024-05-09T08:25:26.237Z,80.40
2024-05-09T08:29:08.187Z,78.30
2024-05-09T08:32:50.155Z,73.70
2024-05-09T08:36:32.523Z,71.90
2024-05-09T08:40:19.917Z,68.00
2024-05-09T08:44:10.063Z,69.50
2024-05-09T08:47:53.573Z,68.20
2024-05-09T08:51:35.574Z,68.50
2024-05-09T08:55:17.603Z,70.20
2024-05-09T08:59:01.679Z,70.20
2024-05-09T09:02:45.163Z,70.60
2024-05-09T09:06:28.341Z,70.90
2024-05-09T09:10:12.899Z,71.40
2024-05-09T09:13:57.125Z,71.30
2024-05-09T09:17:39.172Z,72.60
2024-05-09T09:21:22.043Z,73.50
2024-05-09T09:25:04.165Z,72.10
2024-05-09T09:28:46.998Z,72.80
2024-05-09T09:32:30.119Z,73.30
2024-05-09T09:36:14.430Z,74.20
2024-05-09T09:39:58.821Z,73.70
2024-05-09T09:43:42.898Z,74.00
2024-05-09T09:47:27.234Z,72.90
2024-05-09T09:51:09.584Z,70.40
2024-05-09T09:54:53.708Z,68.80
2024-05-09T09:58:38.605Z,64.80
2024-05-09T10:02:20.736Z,63.70
2024-05-09T10:06:04.151Z,62.20
2024-05-09T10:09:46.203Z,59.20
2024-05-09T10:13:37.286Z,58.10
2024-05-09T10:17:19.904Z,56.50
2024-05-09T10:21:01.876Z,52.80
2024-05-09T10:24:50.234Z,52.70
2024-05-09T10:28:33.593Z,52.10
2024-05-09T10:32:16.614Z,50.50
2024-05-09T10:36:03.641Z,51.60
2024-05-09T10:39:46.156Z,49.60
2024-05-09T10:43:28.692Z,48.90
2024-05-09T10:47:10.959Z,46.90
2024-05-09T10:50:53.089Z,47.20
2024-05-09T10:54:41.226Z,46.10
2024-05-09T10:58:23.770Z,44.70
2024-05-09T11:02:09.972Z,45.10
2024-05-09T11:05:53.279Z,44.90
2024-05-09T11:09:37.392Z,44.70
2024-05-09T11:13:36.416Z,44.10
2024-05-09T11:17:18.468Z,46.60
2024-05-09T11:21:00.445Z,41.40
2024-05-09T11:24:42.393Z,40.60
2024-05-09T11:28:26.905Z,41.20
2024-05-09T11:32:11.569Z,40.10
2024-05-09T11:35:53.667Z,40.30
2024-05-09T11:39:35.856Z,40.70
2024-05-09T11:43:17.972Z,39.80
2024-05-09T11:46:59.966Z,38.90
2024-05-09T11:50:42.046Z,40.70
2024-05-09T11:54:24.038Z,41.50
2024-05-09T11:58:06.055Z,40.30
2024-05-09T12:01:48.071Z,38.90
2024-05-09T12:05:30.186Z,39.20
2024-05-09T12:09:12.198Z,38.80
2024-05-09T12:12:54.268Z,37.70
2024-05-09T12:16:36.330Z,38.20
2024-05-09T12:20:25.811Z,37.70
2024-05-09T12:24:18.278Z,36.90
2024-05-09T12:28:00.887Z,37.30
2024-05-09T12:31:43.163Z,35.20
2024-05-09T12:35:25.862Z,36.10
2024-05-09T12:39:09.565Z,36.20
2024-05-09T12:42:51.514Z,35.00
2024-05-09T12:46:33.488Z,36.20
2024-05-09T12:50:22.398Z,35.90
2024-05-09T12:54:11.463Z,34.80
2024-05-09T12:57:53.542Z,33.60
2024-05-09T13:01:35.527Z,34.90
2024-05-09T13:05:17.779Z,35.00
2024-05-09T13:08:59.902Z,33.50
2024-05-09T13:12:41.834Z,32.60
2024-05-09T13:16:24.048Z,33.00
2024-05-09T13:20:09.302Z,33.20
2024-05-09T13:23:54.274Z,33.30
2024-05-09T13:27:36.894Z,34.70
2024-05-09T13:31:19.871Z,33.20
2024-05-09T13:35:01.855Z,33.60
2024-05-09T13:38:43.838Z,33.20
2024-05-09T13:42:25.772Z,33.30
2024-05-09T13:46:07.822Z,33.20
2024-05-09T13:49:50.185Z,33.50
2024-05-09T13:53:32.129Z,33.00
2024-05-09T13:57:14.259Z,34.30
2024-05-09T14:00:56.303Z,32.70
2024-05-09T14:04:38.657Z,32.70
2024-05-09T14:08:22.540Z,33.00
2024-05-09T14:12:05.244Z,34.30
2024-05-09T14:15:47.417Z,35.80
2024-05-09T14:19:29.633Z,38.30
2024-05-09T14:23:11.799Z,37.80
2024-05-09T14:26:53.804Z,39.60
2024-05-09T14:30:37.882Z,40.20
2024-05-09T14:34:21.004Z,40.60
2024-05-09T14:38:03.865Z,42.40
2024-05-09T14:41:46.758Z,43.80
2024-05-09T14:45:28.730Z,41.30
2024-05-09T14:49:12.429Z,42.90
2024-05-09T14:52:54.705Z,45.10
2024-05-09T14:56:36.668Z,45.00
2024-05-09T15:00:26.127Z,46.00
2024-05-09T15:04:11.559Z,44.90
2024-05-09T15:07:53.695Z,44.80
2024-05-09T15:11:35.725Z,44.10
2024-05-09T15:15:18.208Z,45.70
2024-05-09T15:19:00.360Z,43.50
2024-05-09T15:22:42.318Z,45.50
2024-05-09T15:26:27.361Z,45.80
2024-05-09T15:30:10.832Z,46.10
2024-05-09T15:33:53.248Z,45.00
2024-05-09T15:37:35.226Z,44.20
2024-05-09T15:41:17.242Z,44.90
2024-05-09T15:45:00.936Z,43.50
2024-05-09T15:48:44.836Z,43.70
2024-05-09T15:52:26.921Z,44.10
2024-05-09T15:56:10.955Z,45.70
2024-05-09T15:59:52.874Z,45.10
2024-05-09T16:03:34.910Z,44.90
2024-05-09T16:07:16.989Z,44.70
2024-05-09T16:10:59.304Z,44.70
2024-05-09T16:14:41.277Z,44.30
2024-05-09T16:18:23.447Z,44.50
2024-05-09T16:22:05.490Z,44.60
2024-05-09T16:25:48.400Z,44.60
2024-05-09T16:29:30.613Z,45.30
2024-05-09T16:33:12.738Z,44.30
2024-05-09T16:36:55.005Z,47.70
2024-05-09T16:40:40.182Z,45.70
2024-05-09T16:44:23.421Z,45.20
2024-05-09T16:48:06.630Z,44.90
2024-05-09T16:51:48.798Z,44.10
2024-05-09T16:55:30.924Z,44.10
2024-05-09T16:59:12.979Z,44.20
2024-05-09T17:02:55.073Z,45.20
2024-05-09T17:06:37.115Z,44.50
2024-05-09T17:10:26.778Z,45.20
2024-05-09T17:14:14.277Z,45.60
2024-05-09T17:17:56.802Z,45.80
2024-05-09T17:21:38.831Z,46.40
2024-05-09T17:25:21.310Z,46.40
2024-05-09T17:29:03.248Z,46.80
2024-05-09T17:32:45.227Z,46.10
2024-05-09T17:36:27.193Z,45.90
2024-05-09T17:40:16.700Z,46.30
2024-05-09T17:43:59.086Z,46.80
2024-05-09T17:47:41.267Z,47.00
2024-05-09T17:51:23.161Z,47.60
2024-05-09T17:55:06.537Z,48.50
2024-05-09T17:58:48.989Z,48.30
2024-05-09T18:02:31.590Z,47.90
2024-05-09T18:06:13.580Z,48.50
2024-05-09T18:09:55.510Z,49.00
2024-05-09T18:13:37.412Z,49.30
2024-05-09T18:17:22.331Z,49.60
2024-05-09T18:21:05.600Z,49.40
2024-05-09T18:24:47.622Z,50.60
2024-05-09T18:28:29.698Z,51.90
2024-05-09T18:32:11.761Z,52.20
2024-05-09T18:35:53.707Z,51.00
2024-05-09T18:39:35.668Z,51.50
2024-05-09T18:43:18.200Z,51.40
2024-05-09T18:47:01.035Z,52.00
2024-05-09T18:50:42.961Z,52.20
2024-05-09T18:54:24.889Z,52.90
2024-05-09T18:58:07.298Z,53.30
2024-05-09T19:01:49.607Z,53.80
2024-05-09T19:05:31.888Z,54.50
2024-05-09T19:09:14.088Z,55.20
2024-05-09T19:12:56.057Z,55.00
2024-05-09T19:16:38.227Z,55.40
2024-05-09T19:20:25.548Z,55.80
2024-05-09T19:24:16.679Z,55.90
2024-05-09T19:27:58.737Z,56.60
2024-05-09T19:31:40.672Z,57.60
2024-05-09T19:35:22.586Z,58.50
2024-05-09T19:39:04.512Z,59.60
2024-05-09T19:42:46.630Z,59.80
2024-05-09T19:46:28.682Z,60.30
2024-05-09T19:50:13.899Z,60.90
2024-05-09T19:53:58.340Z,61.40
2024-05-09T19:57:40.302Z,62.40
2024-05-09T20:01:22.373Z,62.60
2024-05-09T20:05:05.066Z,62.90
2024-05-09T20:08:47.482Z,63.40
2024-05-09T20:12:29.395Z,63.70
2024-05-09T20:16:11.899Z,64.80
2024-05-09T20:19:54.659Z,65.40
2024-05-09T20:23:36.928Z,65.80
2024-05-09T20:27:18.835Z,65.90
2024-05-09T20:31:00.781Z,66.60
2024-05-09T20:34:42.678Z,67.30
2024-05-09T20:38:25.081Z,67.40
2024-05-09T20:42:06.988Z,67.80
2024-05-09T20:45:49.084Z,68.10
2024-05-09T20:49:31.116Z,68.70
2024-05-09T20:53:14.295Z,69.20
2024-05-09T20:56:56.951Z,69.50
2024-05-09T21:00:42.785Z,69.80
2024-05-09T21:04:27.173Z,70.20
2024-05-09T21:08:09.376Z,70.40
2024-05-09T21:11:52.032Z,70.80
2024-05-09T21:15:34.249Z,71.10
2024-05-09T21:19:16.637Z,72.20
2024-05-09T21:22:58.815Z,72.00
2024-05-09T21:26:40.927Z,72.40
2024-05-09T21:30:32.381Z,72.60
2024-05-09T21:34:22.525Z,73.10
2024-05-09T21:38:04.813Z,73.20
2024-05-09T21:41:46.836Z,73.50
2024-05-09T21:45:28.854Z,74.00
2024-05-09T21:49:11.151Z,74.10
2024-05-09T21:52:53.090Z,74.20
2024-05-09T21:56:34.956Z,74.50
2024-05-09T22:00:28.522Z,75.00
2024-05-09T22:04:17.366Z,75.20
2024-05-09T22:07:59.438Z,75.60
2024-05-09T22:11:41.532Z,75.90
2024-05-09T22:15:23.536Z,76.10
2024-05-09T22:19:05.898Z,76.20
2024-05-09T22:22:47.836Z,76.30
2024-05-09T22:26:29.725Z,76.60
2024-05-09T22:30:17.680Z,76.80
2024-05-09T22:34:05.732Z,77.00
2024-05-09T22:37:47.812Z,77.20
2024-05-09T22:41:29.882Z,77.50
2024-05-09T22:45:11.858Z,77.50
2024-05-09T22:48:53.863Z,77.80
2024-05-09T22:52:37.366Z,78.00
2024-05-09T22:56:29.170Z,78.20
2024-05-09T23:00:15.725Z,78.00
2024-05-09T23:03:58.264Z,78.40
2024-05-09T23:07:40.343Z,78.40
2024-05-09T23:11:22.285Z,78.50
2024-05-09T23:15:04.747Z,78.70
2024-05-09T23:18:47.623Z,78.80
2024-05-09T23:22:30.688Z,79.20
2024-05-09T23:26:12.606Z,79.60
2024-05-09T23:29:54.528Z,79.80
2024-05-09T23:33:36.595Z,80.00
2024-05-09T23:37:18.844Z,80.30
2024-05-09T23:41:00.995Z,80.50
2024-05-09T23:44:43.700Z,80.70
2024-05-09T23:48:25.587Z,80.80
2024-05-09T23:52:07.717Z,80.80
2024-05-09T23:55:49.630Z,80.70
2024-05-09T23:59:31.862Z,80.90
